createdAt,value
2018-05-16T00:00:53.245Z,95121.25
2018-05-16T00:03:24.198Z,95120.30
2018-05-16T00:05:54.655Z,95121.88
2018-05-16T00:08:26.377Z,95116.25
2018-05-16T00:10:57.709Z,95119.00
2018-05-16T00:13:29.461Z,95123.10
2018-05-16T00:16:01.197Z,95126.83
2018-05-16T00:18:33.722Z,95127.94
2018-05-16T00:21:05.376Z,95127.47
2018-05-16T00:23:37.339Z,95121.64
2018-05-16T00:26:08.864Z,95121.80
2018-05-16T00:28:40.706Z,95124.02
2018-05-16T00:31:11.785Z,95118.48
2018-05-16T00:33:40.608Z,95124.30
2018-05-16T00:36:09.109Z,95127.77
2018-05-16T00:38:37.625Z,95131.77
2018-05-16T00:41:06.617Z,95136.45
2018-05-16T00:43:35.140Z,95131.25
2018-05-16T00:46:04.192Z,95123.78
2018-05-16T00:48:32.744Z,95128.75
2018-05-16T00:51:13.421Z,95121.17
2018-05-16T00:53:41.949Z,95120.44
2018-05-16T00:56:11.786Z,95120.06
2018-05-16T00:58:40.368Z,95117.31
2018-05-16T01:01:09.448Z,95118.20
2018-05-16T01:03:38.005Z,95114.70
2018-05-16T01:06:07.320Z,95114.44
2018-05-16T01:08:35.837Z,95109.58
2018-05-16T01:11:04.625Z,95102.80
2018-05-16T01:13:33.116Z,95107.77
2018-05-16T01:16:01.634Z,95105.83
2018-05-16T01:18:30.156Z,95098.56
2018-05-16T01:20:58.682Z,95097.61
2018-05-16T01:23:27.771Z,95097.67
2018-05-16T01:25:56.309Z,95094.59
2018-05-16T01:28:24.837Z,95092.02
2018-05-16T01:30:54.337Z,95095.59
2018-05-16T01:33:22.848Z,95094.91
2018-05-16T01:35:51.889Z,95092.64
2018-05-16T01:38:20.412Z,95095.84
2018-05-16T01:40:49.379Z,95095.23
2018-05-16T01:43:17.896Z,95103.78
2018-05-16T01:45:46.409Z,95093.67
2018-05-16T01:48:14.943Z,95104.33
2018-05-16T01:50:43.513Z,95102.89
2018-05-16T01:53:12.256Z,95097.81
2018-05-16T01:55:40.772Z,95101.48
2018-05-16T01:58:10.694Z,95102.30
2018-05-16T02:00:40.145Z,95108.37
2018-05-16T02:03:10.001Z,95103.21
2018-05-16T02:05:38.488Z,95099.23
2018-05-16T02:08:07.657Z,95099.94
2018-05-16T02:10:36.168Z,95099.99
2018-05-16T02:13:05.444Z,95099.77
2018-05-16T02:15:33.985Z,95101.50
2018-05-16T02:18:02.505Z,95103.69
2018-05-16T02:20:31.022Z,95099.45
2018-05-16T02:22:59.539Z,95107.16
2018-05-16T02:25:28.077Z,95104.10
2018-05-16T02:27:56.589Z,95101.75
2018-05-16T02:30:26.169Z,95101.16
2018-05-16T02:32:54.685Z,95103.27
2018-05-16T02:35:23.198Z,95098.31
2018-05-16T02:37:51.715Z,95104.03
2018-05-16T02:40:20.249Z,95088.04
2018-05-16T02:42:49.505Z,95083.95
2018-05-16T02:45:18.022Z,95079.92
2018-05-16T02:47:47.186Z,95084.15
2018-05-16T02:50:15.710Z,95091.72
2018-05-16T02:52:44.586Z,95085.87
2018-05-16T02:55:13.134Z,95089.47
2018-05-16T02:57:42.789Z,95076.89
2018-05-16T03:00:11.336Z,95082.78
2018-05-16T03:02:40.449Z,95081.07
2018-05-16T03:05:08.993Z,95079.77
2018-05-16T03:07:37.524Z,95080.29
2018-05-16T03:10:11.715Z,95085.30
2018-05-16T03:12:40.310Z,95086.53
2018-05-16T03:15:08.838Z,95092.80
2018-05-16T03:17:37.998Z,95096.91
2018-05-16T03:20:07.512Z,95097.34
2018-05-16T03:22:36.529Z,95096.39
2018-05-16T03:25:05.054Z,95098.81
2018-05-16T03:27:34.132Z,95098.39
2018-05-16T03:30:02.681Z,95099.39
2018-05-16T03:32:31.425Z,95096.52
2018-05-16T03:34:59.932Z,95100.08
2018-05-16T03:37:29.208Z,95096.19
2018-05-16T03:39:57.741Z,95094.11
2018-05-16T03:42:26.269Z,95096.06
2018-05-16T03:44:55.451Z,95092.10
2018-05-16T03:47:23.972Z,95094.19
2018-05-16T03:49:53.196Z,95091.81
2018-05-16T03:52:21.731Z,95092.35
2018-05-16T03:54:51.269Z,95092.55
2018-05-16T03:57:31.525Z,95095.48
2018-05-16T04:00:11.877Z,95096.23
2018-05-16T04:02:52.318Z,95100.78
2018-05-16T04:05:20.873Z,95101.27
2018-05-16T04:07:49.402Z,95094.55
2018-05-16T04:10:18.433Z,95092.97
2018-05-16T04:12:46.958Z,95095.23
2018-05-16T04:15:16.237Z,95098.19
2018-05-16T04:17:45.742Z,95095.42
2018-05-16T04:20:16.596Z,95091.46
2018-05-16T04:22:45.112Z,95095.87
2018-05-16T04:25:14.455Z,95098.38
2018-05-16T04:27:43.012Z,95100.00
2018-05-16T04:30:12.136Z,95100.36
2018-05-16T04:32:40.690Z,95091.73
2018-05-16T04:35:10.298Z,95093.69
2018-05-16T04:37:38.793Z,95096.70
2018-05-16T04:40:08.587Z,95098.98
2018-05-16T04:42:37.107Z,95097.30
2018-05-16T04:45:05.981Z,95094.61
2018-05-16T04:47:34.550Z,95100.31
2018-05-16T04:50:04.433Z,95103.30
2018-05-16T04:52:33.336Z,95110.67
2018-05-16T04:55:01.873Z,95105.27
2018-05-16T04:57:31.224Z,95111.50
2018-05-16T04:59:59.748Z,95108.46
2018-05-16T05:02:28.941Z,95107.58
2018-05-16T05:04:57.472Z,95107.23
2018-05-16T05:07:26.604Z,95110.34
2018-05-16T05:09:55.131Z,95103.75
2018-05-16T05:12:24.245Z,95112.39
2018-05-16T05:14:52.776Z,95117.74
2018-05-16T05:17:23.110Z,95114.61
2018-05-16T05:19:51.647Z,95120.14
2018-05-16T05:22:21.072Z,95123.14
2018-05-16T05:24:49.564Z,95118.80
2018-05-16T05:27:18.125Z,95117.89
2018-05-16T05:29:46.653Z,95122.16
2018-05-16T05:32:15.205Z,95125.36
2018-05-16T05:34:43.950Z,95126.77
2018-05-16T05:37:12.485Z,95126.14
2018-05-16T05:39:41.441Z,95128.08
2018-05-16T05:42:09.988Z,95126.92
2018-05-16T05:44:39.866Z,95136.23
2018-05-16T05:47:08.393Z,95129.23
2018-05-16T05:49:37.610Z,95134.59
2018-05-16T05:52:06.249Z,95134.85
2018-05-16T05:54:35.259Z,95133.73
2018-05-16T05:57:03.784Z,95130.95
2018-05-16T05:59:32.976Z,95128.34
2018-05-16T06:02:01.489Z,95131.37
2018-05-16T06:04:30.011Z,95133.35
2018-05-16T06:06:59.213Z,95130.84
2018-05-16T06:09:27.763Z,95128.84
2018-05-16T06:11:56.964Z,95130.42
2018-05-16T06:14:25.486Z,95132.89
2018-05-16T06:16:54.508Z,95131.14
2018-05-16T06:19:23.082Z,95135.70
2018-05-16T06:21:51.610Z,95134.63
2018-05-16T06:24:20.124Z,95136.88
2018-05-16T06:26:48.665Z,95136.95
2018-05-16T06:29:17.889Z,95130.52
2018-05-16T06:31:46.425Z,95132.09
2018-05-16T06:34:15.384Z,95140.56
2018-05-16T06:36:43.957Z,95136.66
2018-05-16T06:39:14.767Z,95136.13
2018-05-16T06:41:43.263Z,95138.08
2018-05-16T06:44:12.591Z,95136.18
2018-05-16T06:46:41.105Z,95135.69
2018-05-16T06:49:10.429Z,95137.02
2018-05-16T06:51:38.947Z,95135.90
2018-05-16T06:54:07.502Z,95136.94
2018-05-16T06:56:36.006Z,95135.63
2018-05-16T06:59:04.545Z,95139.00
2018-05-16T07:01:33.657Z,95137.34
2018-05-16T07:04:03.124Z,95137.50
2018-05-16T07:06:32.343Z,95140.75
2018-05-16T07:09:00.888Z,95150.36
2018-05-16T07:11:29.591Z,95146.30
2018-05-16T07:13:58.211Z,95145.23
2018-05-16T07:16:26.779Z,95143.81
2018-05-16T07:18:55.429Z,95145.08
2018-05-16T07:21:23.977Z,95137.36
2018-05-16T07:23:53.350Z,95135.20
2018-05-16T07:26:21.875Z,95135.44
2018-05-16T07:28:51.459Z,95134.05
2018-05-16T07:31:20.035Z,95137.36
2018-05-16T07:33:49.953Z,95133.33
2018-05-16T07:36:18.480Z,95136.10
2018-05-16T07:38:47.847Z,95140.80
2018-05-16T07:41:16.482Z,95132.73
2018-05-16T07:43:46.238Z,95133.77
2018-05-16T07:46:17.350Z,95138.47
2018-05-16T07:48:45.921Z,95141.12
2018-05-16T07:51:19.796Z,95143.97
2018-05-16T07:53:48.247Z,95147.05
2018-05-16T07:56:21.067Z,95149.16
2018-05-16T07:58:53.754Z,95146.21
2018-05-16T08:01:25.661Z,95150.03
2018-05-16T08:03:55.124Z,95149.38
2018-05-16T08:06:24.189Z,95150.34
2018-05-16T08:08:52.725Z,95154.65
2018-05-16T08:11:21.829Z,95159.16
2018-05-16T08:13:50.464Z,95157.77
2018-05-16T08:16:19.393Z,95158.71
2018-05-16T08:18:47.912Z,95160.81
2018-05-16T08:21:16.780Z,95159.53
2018-05-16T08:23:45.317Z,95159.09
2018-05-16T08:26:13.858Z,95162.60
2018-05-16T08:28:42.373Z,95164.70
2018-05-16T08:31:10.952Z,95168.12
2018-05-16T08:33:40.376Z,95166.80
2018-05-16T08:36:08.913Z,95170.13
2018-05-16T08:38:37.967Z,95169.50
2018-05-16T08:41:06.493Z,95165.48
2018-05-16T08:43:35.569Z,95169.30
2018-05-16T08:46:04.080Z,95170.49
2018-05-16T08:48:32.943Z,95167.30
2018-05-16T08:51:05.331Z,95168.12
2018-05-16T08:53:33.901Z,95171.91
2018-05-16T08:56:04.803Z,95172.27
2018-05-16T08:58:37.257Z,95176.30
2018-05-16T09:01:09.823Z,95174.41
2018-05-16T09:03:42.470Z,95177.39
2018-05-16T09:06:14.667Z,95173.43
2018-05-16T09:08:46.146Z,95175.53
2018-05-16T09:11:18.134Z,95176.30
2018-05-16T09:13:50.441Z,95175.70
2018-05-16T09:16:22.399Z,95182.33
2018-05-16T09:18:56.348Z,95179.70
2018-05-16T09:21:28.028Z,95184.31
2018-05-16T09:24:00.343Z,95183.87
2018-05-16T09:26:32.165Z,95187.19
2018-05-16T09:29:03.019Z,95183.03
2018-05-16T09:31:35.731Z,95186.17
2018-05-16T09:34:08.260Z,95189.38
2018-05-16T09:36:41.451Z,95190.59
2018-05-16T09:39:14.236Z,95189.16
2018-05-16T09:41:46.348Z,95187.61
2018-05-16T09:44:18.303Z,95187.34
2018-05-16T09:46:46.902Z,95187.99
2018-05-16T09:49:15.825Z,95191.38
2018-05-16T09:51:44.341Z,95189.20
2018-05-16T09:54:13.518Z,95189.92
2018-05-16T09:56:42.045Z,95190.33
2018-05-16T09:59:11.436Z,95187.02
2018-05-16T10:01:39.981Z,95186.22
2018-05-16T10:04:08.533Z,95195.34
2018-05-16T10:06:37.069Z,95198.23
2018-05-16T10:09:05.595Z,95198.13
2018-05-16T10:11:34.129Z,95196.18
2018-05-16T10:14:02.648Z,95197.72
2018-05-16T10:16:35.541Z,95195.52
2018-05-16T10:19:04.094Z,95190.98
2018-05-16T10:21:33.509Z,95195.84
2018-05-16T10:24:03.521Z,95192.03
2018-05-16T10:26:32.029Z,95198.80
2018-05-16T10:29:01.547Z,95196.59
2018-05-16T10:31:35.612Z,95196.95
2018-05-16T10:34:04.148Z,95192.30
2018-05-16T10:36:32.892Z,95192.70
2018-05-16T10:39:02.495Z,95193.08
2018-05-16T10:41:31.525Z,95190.56
2018-05-16T10:43:59.991Z,95195.48
2018-05-16T10:46:28.528Z,95195.86
2018-05-16T10:48:57.070Z,95198.05
2018-05-16T10:51:25.601Z,95203.50
2018-05-16T10:53:54.204Z,95204.09
2018-05-16T10:56:22.708Z,95206.86
2018-05-16T10:58:51.240Z,95209.11
2018-05-16T11:01:19.763Z,95206.37
2018-05-16T11:03:48.296Z,95197.54
2018-05-16T11:06:17.320Z,95198.25
2018-05-16T11:08:46.832Z,95196.16
2018-05-16T11:11:16.746Z,95202.86
2018-05-16T11:13:45.272Z,95201.34
2018-05-16T11:16:14.479Z,95206.56
2018-05-16T11:18:43.012Z,95206.07
2018-05-16T11:21:12.252Z,95206.61
2018-05-16T11:23:40.773Z,95204.30
2018-05-16T11:26:09.832Z,95205.75
2018-05-16T11:28:38.358Z,95205.42
2018-05-16T11:31:07.185Z,95201.98
2018-05-16T11:33:35.716Z,95206.42
2018-05-16T11:36:04.837Z,95208.35
2018-05-16T11:38:33.353Z,95209.00
2018-05-16T11:41:02.540Z,95211.19
2018-05-16T11:43:31.050Z,95212.24
2018-05-16T11:46:00.783Z,95214.31
2018-05-16T11:48:33.945Z,95212.98
2018-05-16T11:51:05.289Z,95211.12
2018-05-16T11:53:38.257Z,95212.56
2018-05-16T11:56:09.631Z,95213.71
2018-05-16T11:58:42.165Z,95212.13
2018-05-16T12:01:14.146Z,95212.13
2018-05-16T12:03:47.137Z,95213.30
2018-05-16T12:06:18.921Z,95211.56
2018-05-16T12:08:50.898Z,95212.01
2018-05-16T12:11:23.028Z,95211.69
2018-05-16T12:13:54.862Z,95214.16
2018-05-16T12:16:26.689Z,95211.22
2018-05-16T12:18:57.529Z,95213.46
2018-05-16T12:21:31.062Z,95209.45
2018-05-16T12:24:02.834Z,95211.56
2018-05-16T12:26:34.322Z,95212.83
2018-05-16T12:29:07.250Z,95219.44
2018-05-16T12:31:39.507Z,95211.66
2018-05-16T12:34:13.013Z,95210.22
2018-05-16T12:36:45.153Z,95210.91
2018-05-16T12:39:13.669Z,95213.55
2018-05-16T12:41:42.817Z,95211.31
2018-05-16T12:44:11.327Z,95207.81
2018-05-16T12:46:40.500Z,95207.55
2018-05-16T12:49:08.980Z,95206.41
2018-05-16T12:51:38.096Z,95207.91
2018-05-16T12:54:06.653Z,95210.59
2018-05-16T12:56:35.173Z,95209.98
2018-05-16T12:59:03.709Z,95209.27
2018-05-16T13:01:32.825Z,95216.34
2018-05-16T13:04:01.359Z,95209.92
2018-05-16T13:06:31.272Z,95210.59
2018-05-16T13:08:59.805Z,95209.09
2018-05-16T13:11:29.901Z,95213.23
2018-05-16T13:13:58.440Z,95218.00
2018-05-16T13:16:27.919Z,95214.52
2018-05-16T13:18:56.440Z,95216.65
2018-05-16T13:21:25.389Z,95219.11
2018-05-16T13:23:53.872Z,95217.67
2018-05-16T13:26:22.969Z,95214.83
2018-05-16T13:28:51.514Z,95221.40
2018-05-16T13:31:21.156Z,95217.38
2018-05-16T13:33:50.074Z,95214.80
2018-05-16T13:36:22.315Z,95215.67
2018-05-16T13:38:51.316Z,95217.78
2018-05-16T13:41:19.843Z,95211.41
2018-05-16T13:43:48.812Z,95225.41
2018-05-16T13:46:18.405Z,95214.91
2018-05-16T13:48:47.073Z,95214.80
2018-05-16T13:51:19.870Z,95217.73
2018-05-16T13:53:51.739Z,95217.98
2018-05-16T13:56:24.477Z,95219.33
2018-05-16T13:58:55.907Z,95219.80
2018-05-16T14:01:28.114Z,95222.34
2018-05-16T14:04:01.547Z,95223.42
2018-05-16T14:06:34.157Z,95229.58
2018-05-16T14:09:06.096Z,95228.66
2018-05-16T14:11:37.515Z,95226.36
2018-05-16T14:14:09.311Z,95230.39
2018-05-16T14:16:41.267Z,95222.64
2018-05-16T14:19:13.670Z,95224.44
2018-05-16T14:21:45.534Z,95229.94
2018-05-16T14:24:17.619Z,95228.58
2018-05-16T14:26:48.682Z,95229.53
2018-05-16T14:29:20.527Z,95228.23
2018-05-16T14:31:52.371Z,95233.16
2018-05-16T14:34:24.279Z,95228.70
2018-05-16T14:36:55.842Z,95230.42
2018-05-16T14:39:28.111Z,95229.84
2018-05-16T14:42:00.670Z,95228.88
2018-05-16T14:44:32.585Z,95231.28
2018-05-16T14:47:06.039Z,95229.19
2018-05-16T14:49:37.723Z,95230.30
2018-05-16T14:52:11.893Z,95229.56
2018-05-16T14:54:43.651Z,95232.63
2018-05-16T14:57:15.652Z,95232.42
2018-05-16T14:59:46.645Z,95235.66
2018-05-16T15:02:17.794Z,95239.27
2018-05-16T15:04:48.832Z,95245.48
2018-05-16T15:07:20.831Z,95238.97
2018-05-16T15:09:52.331Z,95246.30
2018-05-16T15:12:24.079Z,95243.64
2018-05-16T15:14:55.173Z,95242.17
2018-05-16T15:17:27.330Z,95242.45
2018-05-16T15:19:59.449Z,95240.49
2018-05-16T15:22:31.603Z,95245.43
2018-05-16T15:25:04.183Z,95249.31
2018-05-16T15:27:36.311Z,95253.81
2018-05-16T15:30:08.740Z,95256.67
2018-05-16T15:32:40.847Z,95258.88
2018-05-16T15:35:13.402Z,95258.68
2018-05-16T15:37:45.316Z,95255.91
2018-05-16T15:40:17.446Z,95256.48
2018-05-16T15:42:49.313Z,95250.88
2018-05-16T15:45:21.072Z,95252.06
2018-05-16T15:47:53.096Z,95246.18
2018-05-16T15:50:25.172Z,95252.39
2018-05-16T15:52:56.726Z,95251.53
2018-05-16T15:55:29.969Z,95255.52
2018-05-16T15:58:01.645Z,95244.44
2018-05-16T16:00:34.097Z,95239.36
2018-05-16T16:03:06.027Z,95240.62
2018-05-16T16:05:38.206Z,95241.02
2018-05-16T16:08:10.451Z,95243.35
2018-05-16T16:10:42.126Z,95240.61
2018-05-16T16:13:14.770Z,95238.09
2018-05-16T16:15:46.004Z,95238.27
2018-05-16T16:18:17.135Z,95246.08
2018-05-16T16:20:48.473Z,95245.14
2018-05-16T16:23:27.972Z,95246.69
2018-05-16T16:26:00.240Z,95244.69
2018-05-16T16:28:41.052Z,95245.42
2018-05-16T16:31:12.277Z,95247.87
2018-05-16T16:33:43.651Z,95242.56
2018-05-16T16:36:21.168Z,95244.93
2018-05-16T16:38:49.942Z,95256.83
2018-05-16T16:41:18.391Z,95266.01
2018-05-16T16:43:46.921Z,95265.41
2018-05-16T16:46:16.478Z,95266.86
2018-05-16T16:48:45.001Z,95264.83
2018-05-16T16:51:14.456Z,95266.88
2018-05-16T16:53:42.981Z,95270.50
2018-05-16T16:56:13.787Z,95266.47
2018-05-16T16:58:43.394Z,95267.71
2018-05-16T17:01:12.014Z,95268.22
2018-05-16T17:03:40.536Z,95268.42
2018-05-16T17:06:09.079Z,95273.45
2018-05-16T17:08:37.620Z,95276.99
2018-05-16T17:11:06.240Z,95281.36
2018-05-16T17:13:34.757Z,95285.42
2018-05-16T17:16:03.316Z,95278.22
2018-05-16T17:18:31.960Z,95281.51
2018-05-16T17:21:00.566Z,95278.67
2018-05-16T17:23:29.073Z,95282.83
2018-05-16T17:25:57.945Z,95279.09
2018-05-16T17:28:26.487Z,95280.63
2018-05-16T17:30:55.005Z,95275.96
2018-05-16T17:33:23.555Z,95278.33
2018-05-16T17:35:53.265Z,95286.55
2018-05-16T17:38:21.829Z,95288.06
2018-05-16T17:40:50.486Z,95289.39
2018-05-16T17:43:19.060Z,95288.66
2018-05-16T17:45:47.620Z,95297.34
2018-05-16T17:48:16.562Z,95294.17
2018-05-16T17:50:45.093Z,95299.08
2018-05-16T17:53:13.608Z,95303.72
2018-05-16T17:55:42.332Z,95303.98
2018-05-16T17:58:10.849Z,95307.54
2018-05-16T18:00:39.627Z,95303.73
2018-05-16T18:03:08.219Z,95304.77
2018-05-16T18:05:36.786Z,95302.44
2018-05-16T18:08:05.347Z,95296.02
2018-05-16T18:10:33.884Z,95296.22
2018-05-16T18:16:29.343Z,95297.00
2018-05-16T18:18:58.085Z,95297.56
2018-05-16T18:21:26.600Z,95296.02
2018-05-16T18:23:55.484Z,95292.25
2018-05-16T18:26:24.009Z,95292.09
2018-05-16T18:28:52.544Z,95294.91
2018-05-16T18:31:21.110Z,95295.39
2018-05-16T18:33:49.630Z,95295.23
2018-05-16T18:36:18.403Z,95297.14
2018-05-16T18:38:48.199Z,95297.10
2018-05-16T18:41:17.037Z,95302.12
2018-05-16T18:43:45.560Z,95298.80
2018-05-16T18:46:14.238Z,95302.19
2018-05-16T18:48:42.763Z,95305.31
2018-05-16T18:51:11.277Z,95312.94
2018-05-16T18:53:41.244Z,95319.89
2018-05-16T18:56:09.777Z,95323.43
2018-05-16T18:58:38.301Z,95328.55
2018-05-16T19:01:07.153Z,95327.45
2018-05-16T19:03:35.677Z,95327.05
2018-05-16T19:06:04.213Z,95330.32
2018-05-16T19:08:33.087Z,95328.59
2018-05-16T19:11:01.618Z,95332.05
2018-05-16T19:13:30.197Z,95330.22
2018-05-16T19:15:58.822Z,95332.55
2018-05-16T19:18:27.349Z,95333.80
2018-05-16T19:20:55.889Z,95335.40
2018-05-16T19:23:24.548Z,95333.02
2018-05-16T19:25:53.064Z,95331.09
2018-05-16T19:28:21.658Z,95332.95
2018-05-16T19:30:50.182Z,95329.30
2018-05-16T19:33:18.715Z,95332.62
2018-05-16T19:35:47.236Z,95341.02
2018-05-16T19:38:15.780Z,95342.69
2018-05-16T19:40:44.313Z,95343.37
2018-05-16T19:43:12.969Z,95350.20
2018-05-16T19:45:42.161Z,95352.48
2018-05-16T19:48:10.758Z,95348.16
2018-05-16T19:50:39.288Z,95352.45
2018-05-16T19:53:08.131Z,95353.20
2018-05-16T19:55:36.825Z,95358.69
2018-05-16T19:58:05.364Z,95357.33
2018-05-16T20:00:33.897Z,95359.22
2018-05-16T20:03:02.513Z,95358.39
2018-05-16T20:05:31.064Z,95356.98
2018-05-16T20:07:59.837Z,95357.11
2018-05-16T20:10:28.355Z,95357.09
2018-05-16T20:12:56.880Z,95356.41
2018-05-16T20:15:25.651Z,95356.63
2018-05-16T20:17:54.185Z,95360.06
2018-05-16T20:20:22.821Z,95368.26
2018-05-16T20:22:51.569Z,95374.42
2018-05-16T20:25:20.101Z,95373.70
2018-05-16T20:27:48.632Z,95373.38
2018-05-16T20:30:18.169Z,95373.54
2018-05-16T20:32:47.036Z,95378.78
2018-05-16T20:35:16.466Z,95376.41
2018-05-16T20:37:45.984Z,95379.78
2018-05-16T20:40:14.519Z,95380.06
2018-05-16T20:42:43.565Z,95382.87
2018-05-16T20:45:12.192Z,95382.91
2018-05-16T20:47:40.670Z,95386.19
2018-05-16T20:50:09.397Z,95383.03
2018-05-16T20:52:37.928Z,95385.10
2018-05-16T20:55:06.505Z,95381.22
2018-05-16T20:57:35.408Z,95385.02
2018-05-16T21:00:03.953Z,95394.05
2018-05-16T21:02:32.553Z,95393.83
2018-05-16T21:05:01.174Z,95390.21
2018-05-16T21:07:32.246Z,95392.53
2018-05-16T21:10:00.780Z,95388.04
2018-05-16T21:12:29.355Z,95398.83
2018-05-16T21:14:57.886Z,95394.05
2018-05-16T21:17:26.558Z,95396.02
2018-05-16T21:19:55.071Z,95394.34
2018-05-16T21:22:23.695Z,95391.17
2018-05-16T21:24:52.399Z,95392.57
2018-05-16T21:27:21.014Z,95380.03
2018-05-16T21:29:49.630Z,95382.65
2018-05-16T21:32:19.650Z,95377.84
2018-05-16T21:34:48.210Z,95374.64
2018-05-16T21:37:16.745Z,95372.48
2018-05-16T21:39:45.289Z,95380.25
2018-05-16T21:42:13.813Z,95376.67
2018-05-16T21:44:42.356Z,95382.73
2018-05-16T21:47:11.237Z,95384.88
2018-05-16T21:49:39.770Z,95382.16
2018-05-16T21:52:08.304Z,95385.77
2018-05-16T21:54:36.936Z,95387.33
2018-05-16T21:59:53.311Z,95383.56
2018-05-16T22:02:30.353Z,95387.98
2018-05-16T22:05:06.879Z,95389.07
2018-05-16T22:07:47.726Z,95390.33
2018-05-16T22:10:16.836Z,95386.04
2018-05-16T22:12:45.369Z,95383.59
2018-05-16T22:15:16.259Z,95382.86
2018-05-16T22:17:44.748Z,95381.80
2018-05-16T22:20:13.277Z,95379.25
2018-05-16T22:22:41.811Z,95380.42
2018-05-16T22:25:10.503Z,95378.43
2018-05-16T22:27:39.063Z,95384.24
2018-05-16T22:30:07.045Z,95391.13
2018-05-16T22:32:41.057Z,95393.08
2018-05-16T22:35:15.485Z,95397.55
2018-05-16T22:37:49.747Z,95400.17
2018-05-16T22:40:23.925Z,95403.26
2018-05-16T22:42:51.874Z,95402.47
2018-05-16T22:45:22.790Z,95406.33
2018-05-16T22:47:51.342Z,95396.87
2018-05-16T22:50:20.906Z,95398.14
2018-05-16T22:52:49.557Z,95396.00
2018-05-16T22:55:18.061Z,95395.73
2018-05-16T22:57:46.593Z,95397.97
2018-05-16T23:00:28.015Z,95390.75
2018-05-16T23:02:56.600Z,95389.13
2018-05-16T23:05:25.116Z,95387.40
2018-05-16T23:07:53.645Z,95385.32
2018-05-16T23:10:22.176Z,95384.01
2018-05-16T23:12:50.720Z,95384.72
2018-05-16T23:15:19.372Z,95380.37
2018-05-16T23:17:47.917Z,95372.86
2018-05-16T23:20:16.513Z,95374.97
2018-05-16T23:22:45.014Z,95378.98
2018-05-16T23:25:13.671Z,95376.73
2018-05-16T23:27:44.132Z,95374.73
2018-05-16T23:30:12.664Z,95382.22
2018-05-16T23:32:41.277Z,95378.05
2018-05-16T23:35:09.803Z,95383.57
2018-05-16T23:37:38.364Z,95380.73
2018-05-16T23:40:06.904Z,95385.91
2018-05-16T23:42:35.416Z,95381.69
2018-05-16T23:45:03.945Z,95382.59
2018-05-16T23:47:32.496Z,95390.02
2018-05-16T23:50:01.024Z,95385.02
2018-05-16T23:52:29.552Z,95382.83
2018-05-16T23:54:58.072Z,95382.48
2018-05-16T23:57:26.657Z,95380.70
2018-05-16T23:59:55.193Z,95392.02
